createdAt,value
2023-04-22T00:01:35.670Z,8.90
2023-04-22T00:04:04.112Z,9.60
2023-04-22T00:06:32.655Z,8.40
2023-04-22T00:09:00.794Z,9.30
2023-04-22T00:11:29.217Z,9.20
2023-04-22T00:13:57.389Z,10.10
2023-04-22T00:16:26.534Z,9.90
2023-04-22T00:18:54.572Z,10.10
2023-04-22T00:21:22.919Z,9.70
2023-04-22T00:23:50.975Z,9.90
2023-04-22T00:26:19.183Z,9.90
2023-04-22T00:28:47.527Z,10.60
2023-04-22T00:31:15.801Z,10.40
2023-04-22T00:33:44.934Z,11.10
2023-04-22T00:36:13.318Z,10.30
2023-04-22T00:38:44.413Z,10.30
2023-04-22T00:41:12.748Z,11.50
2023-04-22T00:43:41.336Z,11.30
2023-04-22T00:46:09.704Z,10.50
2023-04-22T00:48:37.987Z,10.60
2023-04-22T00:51:06.197Z,9.80
2023-04-22T00:53:34.349Z,10.60
2023-04-22T00:56:02.710Z,9.90
2023-04-22T00:58:31.093Z,9.80
2023-04-22T01:01:00.327Z,10.70
2023-04-22T01:03:30.907Z,10.50
2023-04-22T01:05:59.456Z,9.30
2023-04-22T01:08:29.038Z,10.30
2023-04-22T01:10:57.916Z,9.40
2023-04-22T01:13:26.297Z,9.40
2023-04-22T01:15:55.129Z,9.30
2023-04-22T01:20:59.537Z,9.90
2023-04-22T01:23:27.667Z,10.50
2023-04-22T01:25:56.320Z,9.90
2023-04-22T01:28:24.693Z,8.40
2023-04-22T01:30:52.855Z,8.20
2023-04-22T01:33:21.129Z,8.40
2023-04-22T01:35:49.624Z,8.50
2023-04-22T01:38:18.461Z,8.60
2023-04-22T01:40:46.702Z,8.60
2023-04-22T01:43:14.849Z,7.20
2023-04-22T01:45:43.139Z,8.00
2023-04-22T01:48:11.454Z,8.90
2023-04-22T01:50:39.795Z,8.30
2023-04-22T01:53:08.622Z,8.60
2023-04-22T01:55:37.472Z,8.40
2023-04-22T01:58:05.653Z,7.30
2023-04-22T02:00:33.788Z,7.80
2023-04-22T02:03:02.161Z,8.50
2023-04-22T02:05:30.692Z,8.80
2023-04-22T02:07:59.126Z,9.20
2023-04-22T02:10:27.255Z,8.40
2023-04-22T02:12:55.615Z,8.10
2023-04-22T02:15:23.725Z,8.00
2023-04-22T02:17:53.117Z,8.00
2023-04-22T02:20:21.481Z,7.00
2023-04-22T02:22:50.943Z,8.30
2023-04-22T02:25:21.159Z,8.20
2023-04-22T02:27:51.112Z,6.80
2023-04-22T02:30:19.704Z,6.80
2023-04-22T02:32:48.111Z,7.60
2023-04-22T02:35:16.465Z,6.70
2023-04-22T02:37:44.842Z,7.20
2023-04-22T02:40:12.914Z,7.00
2023-04-22T02:42:41.195Z,6.60
2023-04-22T02:45:10.518Z,6.80
2023-04-22T02:47:39.417Z,7.30
2023-04-22T02:50:08.490Z,7.50
2023-04-22T02:52:36.677Z,7.70
2023-04-22T02:55:05.962Z,6.70
2023-04-22T02:57:34.287Z,7.40
2023-04-22T03:00:02.551Z,7.30
2023-04-22T03:02:32.199Z,6.40
2023-04-22T03:05:08.806Z,7.30
2023-04-22T03:07:37.495Z,7.20
2023-04-22T03:10:07.034Z,6.70
2023-04-22T03:12:35.690Z,6.50
2023-04-22T03:15:04.778Z,6.90
2023-04-22T03:17:33.621Z,6.80
2023-04-22T03:20:03.299Z,7.20
2023-04-22T03:22:31.666Z,6.40
2023-04-22T03:25:00.486Z,7.40
2023-04-22T03:27:30.370Z,7.90
2023-04-22T03:29:58.614Z,6.80
2023-04-22T03:32:27.143Z,7.10
2023-04-22T03:35:17.201Z,7.10
2023-04-22T03:37:46.835Z,6.50
2023-04-22T03:40:16.563Z,6.80
2023-04-22T03:42:44.821Z,6.40
2023-04-22T03:45:13.390Z,6.20
2023-04-22T03:47:44.981Z,6.20
2023-04-22T03:50:21.534Z,6.70
2023-04-22T03:52:50.632Z,6.80
2023-04-22T03:55:20.660Z,6.70
2023-04-22T03:57:49.752Z,6.60
2023-04-22T04:00:17.967Z,6.80
2023-04-22T04:02:50.054Z,7.80
2023-04-22T04:05:19.366Z,7.10
2023-04-22T04:07:48.802Z,6.90
2023-04-22T04:10:16.829Z,6.90
2023-04-22T04:12:45.055Z,6.50
2023-04-22T04:15:13.632Z,6.40
2023-04-22T04:17:42.423Z,6.40
2023-04-22T04:20:11.242Z,6.80
2023-04-22T04:22:40.615Z,5.90
2023-04-22T04:25:09.225Z,5.80
2023-04-22T04:27:41.882Z,5.70
2023-04-22T04:30:12.718Z,5.90
2023-04-22T04:32:45.930Z,5.30
2023-04-22T04:35:15.513Z,6.60
2023-04-22T04:37:47.582Z,6.00
2023-04-22T04:40:16.682Z,5.60
2023-04-22T04:42:55.919Z,5.20
2023-04-22T04:45:27.059Z,5.40
2023-04-22T04:47:55.492Z,5.30
2023-04-22T04:50:30.525Z,4.70
2023-04-22T04:53:02.706Z,5.60
2023-04-22T04:55:38.128Z,4.50
2023-04-22T04:58:10.391Z,5.50
2023-04-22T05:00:38.564Z,5.20
2023-04-22T05:03:07.164Z,4.90
2023-04-22T05:05:35.917Z,5.40
2023-04-22T05:08:03.885Z,5.60
2023-04-22T05:10:33.121Z,5.50
2023-04-22T05:13:04.109Z,5.00
2023-04-22T05:15:34.274Z,5.70
2023-04-22T05:18:02.704Z,5.50
2023-04-22T05:20:33.172Z,5.00
2023-04-22T05:23:04.628Z,5.30
2023-04-22T05:25:33.041Z,5.00
2023-04-22T05:28:05.785Z,5.00
2023-04-22T05:30:38.774Z,4.80
2023-04-22T05:33:08.962Z,5.40
2023-04-22T05:35:38.111Z,5.10
2023-04-22T05:38:06.539Z,4.80
2023-04-22T05:40:36.182Z,5.40
2023-04-22T05:43:05.203Z,5.30
2023-04-22T05:45:34.309Z,5.30
2023-04-22T05:48:03.192Z,5.20
2023-04-22T05:50:34.104Z,5.80
2023-04-22T05:53:07.495Z,5.30
2023-04-22T05:55:35.781Z,5.30
2023-04-22T05:58:03.976Z,5.20
2023-04-22T06:00:42.994Z,5.60
2023-04-22T06:03:21.506Z,5.20
2023-04-22T06:05:50.123Z,5.80
2023-04-22T06:08:19.825Z,5.80
2023-04-22T06:10:48.386Z,5.60
2023-04-22T06:13:17.956Z,5.30
2023-04-22T06:15:46.811Z,5.70
2023-04-22T06:18:15.130Z,5.80
2023-04-22T06:20:43.367Z,5.80
2023-04-22T06:23:11.427Z,5.80
2023-04-22T06:25:39.472Z,5.70
2023-04-22T06:28:07.509Z,5.70
2023-04-22T06:30:36.228Z,6.10
2023-04-22T06:33:04.633Z,6.70
2023-04-22T06:35:33.316Z,6.10
2023-04-22T06:38:01.904Z,6.60
2023-04-22T06:40:33.393Z,6.20
2023-04-22T06:43:09.422Z,6.60
2023-04-22T06:46:03.650Z,8.50
2023-04-22T06:48:41.194Z,6.50
2023-04-22T06:51:18.796Z,7.20
2023-04-22T06:53:47.073Z,6.80
2023-04-22T06:56:17.250Z,6.30
2023-04-22T06:58:45.575Z,7.80
2023-04-22T07:01:13.773Z,6.40
2023-04-22T07:03:42.741Z,6.80
2023-04-22T07:06:12.866Z,6.50
2023-04-22T07:08:42.169Z,6.40
2023-04-22T07:11:12.553Z,6.60
2023-04-22T07:14:14.862Z,6.70
2023-04-22T07:16:43.242Z,7.30
2023-04-22T07:19:11.742Z,6.60
2023-04-22T07:21:39.872Z,7.50
2023-04-22T07:24:12.265Z,7.00
2023-04-22T07:26:41.276Z,7.00
2023-04-22T07:29:09.433Z,6.60
2023-04-22T07:31:37.771Z,6.90
2023-04-22T07:34:06.418Z,6.90
2023-04-22T07:36:35.040Z,6.80
2023-04-22T07:39:03.385Z,6.70
2023-04-22T07:41:31.983Z,6.80
2023-04-22T07:44:00.452Z,7.40
2023-04-22T07:46:29.132Z,6.60
2023-04-22T07:48:57.414Z,7.30
2023-04-22T07:51:26.202Z,6.80
2023-04-22T07:53:54.382Z,7.50
2023-04-22T07:56:22.912Z,6.60
2023-04-22T07:58:51.041Z,6.90
2023-04-22T08:01:20.214Z,7.20
2023-04-22T08:03:48.727Z,7.50
2023-04-22T08:06:17.544Z,7.60
2023-04-22T08:08:46.098Z,7.70
2023-04-22T08:11:14.171Z,7.40
2023-04-22T08:13:42.351Z,8.30
2023-04-22T08:16:10.830Z,6.70
2023-04-22T08:18:39.310Z,8.10
2023-04-22T08:21:07.612Z,7.80
2023-04-22T08:23:35.869Z,6.90
2023-04-22T08:26:04.248Z,7.20
2023-04-22T08:28:32.528Z,7.10
2023-04-22T08:31:01.415Z,6.90
2023-04-22T08:33:29.800Z,6.90
2023-04-22T08:35:58.186Z,6.50
2023-04-22T08:38:26.499Z,6.80
2023-04-22T08:40:56.480Z,6.90
2023-04-22T08:43:27.735Z,6.90
2023-04-22T08:45:55.907Z,6.90
2023-04-22T08:48:24.184Z,6.90
2023-04-22T08:50:52.235Z,7.40
2023-04-22T08:53:24.885Z,6.80
2023-04-22T08:55:53.562Z,7.30
2023-04-22T08:58:23.022Z,6.70
2023-04-22T09:00:51.453Z,6.00
2023-04-22T09:03:20.071Z,6.40
2023-04-22T09:05:48.493Z,6.80
2023-04-22T09:08:16.651Z,6.80
2023-04-22T09:10:44.728Z,5.60
2023-04-22T09:13:15.257Z,6.80
2023-04-22T09:15:46.463Z,6.10
2023-04-22T09:18:18.293Z,6.60
2023-04-22T09:20:49.408Z,5.80
2023-04-22T09:23:17.886Z,5.70
2023-04-22T09:25:46.791Z,4.80
2023-04-22T09:28:18.953Z,4.40
2023-04-22T09:30:47.262Z,5.50
2023-04-22T09:33:15.771Z,4.90
2023-04-22T09:35:43.945Z,4.80
2023-04-22T09:38:12.837Z,3.40
2023-04-22T09:40:44.297Z,5.20
2023-04-22T09:43:12.594Z,4.70
2023-04-22T09:45:42.001Z,5.30
2023-04-22T09:48:10.849Z,5.80
2023-04-22T09:50:40.447Z,5.10
2023-04-22T09:53:10.215Z,3.90
2023-04-22T09:55:40.454Z,4.50
2023-04-22T09:58:13.138Z,4.60
2023-04-22T10:00:49.681Z,4.60
2023-04-22T10:03:19.197Z,5.20
2023-04-22T10:05:47.597Z,4.50
2023-04-22T10:08:16.461Z,5.70
2023-04-22T10:10:45.047Z,5.10
2023-04-22T10:13:17.251Z,4.90
2023-04-22T10:15:53.098Z,5.50
2023-04-22T10:18:28.336Z,5.20
2023-04-22T10:20:56.962Z,4.90
2023-04-22T10:23:25.191Z,4.70
2023-04-22T10:25:54.501Z,4.20
2023-04-22T10:28:23.597Z,4.70
2023-04-22T10:30:51.721Z,4.60
2023-04-22T10:33:32.339Z,5.30
2023-04-22T10:36:08.220Z,5.00
2023-04-22T10:38:37.804Z,5.00
2023-04-22T10:41:06.179Z,5.10
2023-04-22T10:43:47.560Z,4.60
2023-04-22T10:46:35.177Z,4.70
2023-04-22T10:49:10.590Z,5.20
2023-04-22T10:51:46.318Z,4.70
2023-04-22T10:54:28.767Z,5.50
2023-04-22T10:57:10.511Z,5.00
2023-04-22T10:59:43.283Z,4.80
2023-04-22T11:02:16.091Z,4.70
2023-04-22T11:04:45.305Z,4.40
2023-04-22T11:07:30.913Z,4.30
2023-04-22T11:10:01.279Z,4.60
2023-04-22T11:12:35.451Z,4.10
2023-04-22T11:15:07.170Z,4.30
2023-04-22T11:17:36.383Z,4.50
2023-04-22T11:20:05.661Z,4.70
2023-04-22T11:22:57.000Z,4.80
2023-04-22T11:25:26.151Z,5.40
2023-04-22T11:27:55.393Z,4.50
2023-04-22T11:30:26.008Z,5.20
2023-04-22T11:32:59.997Z,4.50
2023-04-22T11:35:32.630Z,4.30
2023-04-22T11:38:02.435Z,4.60
2023-04-22T11:40:43.894Z,4.60
2023-04-22T11:43:14.481Z,4.90
2023-04-22T11:45:42.740Z,4.90
2023-04-22T11:48:11.738Z,4.20
2023-04-22T11:50:42.370Z,4.00
2023-04-22T11:53:21.115Z,4.00
2023-04-22T11:55:53.159Z,4.10
2023-04-22T11:58:26.788Z,3.60
2023-04-22T12:00:56.181Z,3.90
2023-04-22T12:03:25.080Z,4.20
2023-04-22T12:05:58.022Z,4.30
2023-04-22T12:08:31.545Z,3.40
2023-04-22T12:11:01.919Z,3.90
2023-04-22T12:13:33.174Z,3.90
2023-04-22T12:16:02.796Z,3.80
2023-04-22T12:18:35.179Z,3.30
2023-04-22T12:21:12.983Z,3.60
2023-04-22T12:23:48.619Z,3.40
2023-04-22T12:26:17.786Z,3.30
2023-04-22T12:28:45.868Z,3.70
2023-04-22T12:31:14.876Z,3.60
2023-04-22T12:33:43.225Z,3.60
2023-04-22T12:36:11.669Z,3.20
2023-04-22T12:38:39.906Z,3.60
2023-04-22T12:41:08.136Z,4.40
2023-04-22T12:43:37.198Z,4.80
2023-04-22T12:46:07.033Z,4.20
2023-04-22T12:48:37.757Z,3.90
2023-04-22T12:51:06.986Z,4.60
2023-04-22T12:53:35.548Z,4.30
2023-04-22T12:56:06.494Z,4.00
2023-04-22T12:58:38.736Z,5.80
2023-04-22T13:01:13.378Z,3.90
2023-04-22T13:03:41.743Z,3.70
2023-04-22T13:06:10.219Z,3.60
2023-04-22T13:08:38.722Z,3.50
2023-04-22T13:11:07.080Z,4.70
2023-04-22T13:13:35.893Z,3.70
2023-04-22T13:16:04.112Z,3.60
2023-04-22T13:18:32.444Z,3.70
2023-04-22T13:21:00.943Z,3.70
2023-04-22T13:23:29.827Z,3.40
2023-04-22T13:25:57.996Z,3.70
2023-04-22T13:28:26.235Z,3.40
2023-04-22T13:30:55.588Z,2.70
2023-04-22T13:33:23.867Z,2.80
2023-04-22T13:35:52.161Z,3.10
2023-04-22T13:39:09.975Z,3.20
2023-04-22T13:41:38.052Z,2.70
2023-04-22T13:44:06.342Z,2.50
2023-04-22T13:46:34.582Z,3.20
2023-04-22T13:49:02.740Z,3.10
2023-04-22T13:51:32.399Z,2.30
2023-04-22T13:54:01.385Z,2.90
2023-04-22T13:56:29.873Z,2.50
2023-04-22T13:58:58.447Z,2.20
2023-04-22T14:01:26.695Z,2.60
2023-04-22T14:03:55.418Z,2.30
2023-04-22T14:06:23.723Z,2.30
2023-04-22T14:08:51.970Z,2.30
2023-04-22T14:11:20.358Z,2.20
2023-04-22T14:13:48.755Z,2.10
2023-04-22T14:16:18.023Z,2.00
2023-04-22T14:18:46.451Z,2.00
2023-04-22T14:21:14.696Z,2.10
2023-04-22T14:23:43.081Z,2.20
2023-04-22T14:26:12.068Z,2.00
2023-04-22T14:28:40.410Z,1.80
2023-04-22T14:31:08.657Z,2.00
2023-04-22T14:33:36.918Z,1.50
2023-04-22T14:36:05.690Z,1.90
2023-04-22T14:38:33.719Z,1.80
2023-04-22T14:41:01.864Z,1.60
2023-04-22T14:43:32.032Z,2.00
2023-04-22T14:46:01.999Z,2.50
2023-04-22T14:48:32.421Z,2.10
2023-04-22T14:51:01.393Z,2.40
2023-04-22T14:53:29.691Z,1.60
2023-04-22T14:55:57.798Z,1.90
2023-04-22T14:58:27.192Z,1.60
2023-04-22T15:00:55.784Z,1.80
2023-04-22T15:03:24.911Z,1.80
2023-04-22T15:05:56.599Z,1.70
2023-04-22T15:08:26.119Z,1.00
2023-04-22T15:10:54.373Z,1.30
2023-04-22T15:13:26.339Z,1.40
2023-04-22T15:15:54.504Z,1.10
2023-04-22T15:18:22.998Z,1.30
2023-04-22T15:20:51.476Z,1.30
2023-04-22T15:23:19.495Z,1.40
2023-04-22T15:25:47.836Z,1.30
2023-04-22T15:28:16.048Z,1.20
2023-04-22T15:30:44.598Z,1.50
2023-04-22T15:33:12.713Z,1.70
2023-04-22T15:35:43.228Z,1.10
2023-04-22T15:38:11.677Z,1.30
2023-04-22T15:40:39.703Z,1.30
2023-04-22T15:43:08.232Z,1.80
2023-04-22T15:45:36.408Z,2.70
2023-04-22T15:48:06.041Z,1.80
2023-04-22T15:50:34.309Z,2.00
2023-04-22T15:53:02.613Z,2.40
2023-04-22T15:55:31.310Z,1.90
2023-04-22T15:57:59.850Z,1.90
2023-04-22T16:00:28.126Z,1.70
2023-04-22T16:02:56.660Z,1.90
2023-04-22T16:05:25.290Z,2.70
2023-04-22T16:07:53.792Z,3.10
2023-04-22T16:10:23.008Z,2.80
2023-04-22T16:12:51.209Z,2.70
2023-04-22T16:15:19.431Z,3.50
2023-04-22T16:17:47.722Z,3.40
2023-04-22T16:20:15.719Z,2.80
2023-04-22T16:22:44.066Z,2.90
2023-04-22T16:25:12.327Z,2.90
2023-04-22T16:27:41.438Z,2.50
2023-04-22T16:30:10.118Z,3.80
2023-04-22T16:32:38.451Z,3.70
2023-04-22T16:35:07.808Z,3.80
2023-04-22T16:37:36.942Z,3.60
2023-04-22T16:40:06.360Z,3.90
2023-04-22T16:42:34.790Z,7.70
2023-04-22T16:45:02.960Z,7.60
2023-04-22T16:47:31.469Z,10.80
2023-04-22T16:49:59.760Z,5.90
2023-04-22T16:52:28.024Z,4.50
2023-04-22T16:54:56.079Z,4.20
2023-04-22T16:57:24.111Z,4.60
2023-04-22T16:59:52.323Z,6.00
2023-04-22T17:02:21.008Z,6.90
2023-04-22T17:04:49.302Z,7.90
2023-04-22T17:07:17.467Z,4.80
2023-04-22T17:09:45.640Z,5.60
2023-04-22T17:12:13.922Z,4.40
2023-04-22T17:14:42.087Z,4.90
2023-04-22T17:17:10.294Z,4.80
2023-04-22T17:19:38.672Z,5.10
2023-04-22T17:22:07.188Z,5.10
2023-04-22T17:24:35.923Z,6.90
2023-04-22T17:27:04.817Z,6.90
2023-04-22T17:29:33.748Z,5.80
2023-04-22T17:32:01.988Z,6.80
2023-04-22T17:34:30.121Z,7.60
2023-04-22T17:36:58.339Z,7.70
2023-04-22T17:39:26.718Z,6.70
2023-04-22T17:41:54.966Z,7.90
2023-04-22T17:44:23.271Z,8.30
2023-04-22T17:46:51.679Z,8.60
2023-04-22T17:49:20.033Z,8.80
2023-04-22T17:51:48.097Z,9.20
2023-04-22T17:54:16.524Z,8.50
2023-04-22T17:56:45.177Z,9.00
2023-04-22T17:59:13.774Z,9.50
2023-04-22T18:01:43.228Z,9.20
2023-04-22T18:04:11.621Z,9.20
2023-04-22T18:06:40.069Z,9.60
2023-04-22T18:09:08.628Z,9.10
2023-04-22T18:11:37.709Z,9.90
2023-04-22T18:14:06.132Z,10.90
2023-04-22T18:16:34.288Z,9.20
2023-04-22T18:19:04.280Z,8.70
2023-04-22T18:21:34.024Z,9.60
2023-04-22T18:24:04.087Z,12.70
2023-04-22T18:26:32.403Z,24.00
2023-04-22T18:29:00.695Z,21.40
2023-04-22T18:31:29.363Z,28.40
2023-04-22T18:33:57.839Z,36.40
2023-04-22T18:36:27.676Z,35.10
2023-04-22T18:38:55.916Z,42.00
2023-04-22T18:41:25.635Z,37.80
2023-04-22T18:43:53.661Z,35.60
2023-04-22T18:46:22.190Z,32.50
2023-04-22T18:48:50.789Z,31.00
2023-04-22T18:51:19.170Z,29.60
2023-04-22T18:53:49.195Z,39.30
2023-04-22T18:56:17.356Z,27.60
2023-04-22T18:58:45.520Z,12.20
2023-04-22T19:01:14.550Z,10.40
2023-04-22T19:03:43.120Z,10.00
2023-04-22T19:06:14.116Z,8.60
2023-04-22T19:08:42.204Z,10.80
2023-04-22T19:11:10.354Z,15.00
2023-04-22T19:13:38.924Z,11.40
2023-04-22T19:16:07.091Z,12.60
2023-04-22T19:18:35.195Z,12.60
2023-04-22T19:21:03.486Z,14.20
2023-04-22T19:23:32.111Z,13.50
2023-04-22T19:26:00.048Z,14.30
2023-04-22T19:28:28.833Z,15.60
2023-04-22T19:30:56.856Z,22.10
2023-04-22T19:33:25.080Z,25.50
2023-04-22T19:35:53.082Z,32.30
2023-04-22T19:38:22.516Z,40.70
2023-04-22T19:40:50.906Z,22.50
2023-04-22T19:43:19.411Z,20.60
2023-04-22T19:45:47.475Z,23.10
2023-04-22T19:48:15.725Z,30.10
2023-04-22T19:50:43.918Z,31.70
2023-04-22T19:53:12.129Z,30.40
2023-04-22T19:55:40.823Z,24.50
2023-04-22T19:58:09.367Z,26.40
2023-04-22T20:00:38.962Z,31.20
2023-04-22T20:03:07.600Z,31.00
2023-04-22T20:05:37.344Z,24.10
2023-04-22T20:08:05.557Z,34.70
2023-04-22T20:10:33.972Z,26.10
2023-04-22T20:13:04.063Z,14.90
2023-04-22T20:15:34.093Z,10.50
2023-04-22T20:18:02.243Z,20.00
2023-04-22T20:20:32.275Z,16.30
2023-04-22T20:23:01.792Z,14.80
2023-04-22T20:25:30.960Z,17.40
2023-04-22T20:27:59.012Z,20.60
2023-04-22T20:30:27.289Z,22.70
2023-04-22T20:32:56.402Z,22.20
2023-04-22T20:35:24.946Z,21.70
2023-04-22T20:37:54.055Z,21.50
2023-04-22T20:40:23.358Z,23.40
2023-04-22T20:42:53.119Z,22.90
2023-04-22T20:45:21.084Z,24.40
2023-04-22T20:47:49.112Z,23.60
2023-04-22T20:50:17.464Z,21.80
2023-04-22T20:52:47.471Z,22.10
2023-04-22T20:55:16.675Z,22.10
2023-04-22T20:57:45.073Z,21.60
2023-04-22T21:00:14.233Z,22.50
2023-04-22T21:02:43.635Z,22.50
2023-04-22T21:05:12.217Z,23.80
2023-04-22T21:07:41.483Z,21.50
2023-04-22T21:10:10.192Z,17.70
2023-04-22T21:12:38.472Z,24.30
2023-04-22T21:15:07.366Z,22.00
2023-04-22T21:17:35.681Z,22.20
2023-04-22T21:20:05.545Z,20.40
2023-04-22T21:22:33.704Z,19.30
2023-04-22T21:25:01.753Z,16.60
2023-04-22T21:27:30.282Z,15.70
2023-04-22T21:29:59.399Z,13.70
2023-04-22T21:32:27.666Z,14.00
2023-04-22T21:34:56.815Z,15.40
2023-04-22T21:37:24.991Z,17.00
2023-04-22T21:39:53.084Z,16.40
2023-04-22T21:42:21.096Z,14.90
2023-04-22T21:44:49.987Z,16.00
2023-04-22T21:47:18.006Z,15.70
2023-04-22T21:49:47.208Z,16.60
2023-04-22T21:52:16.420Z,15.90
2023-04-22T21:54:44.629Z,15.80
2023-04-22T21:57:13.321Z,15.60
2023-04-22T21:59:41.617Z,15.20
2023-04-22T22:02:09.665Z,15.20
2023-04-22T22:04:37.972Z,15.80
2023-04-22T22:07:06.661Z,16.10
2023-04-22T22:09:35.170Z,16.10
2023-04-22T22:12:04.196Z,15.90
2023-04-22T22:14:32.592Z,15.40
2023-04-22T22:17:01.531Z,16.20
2023-04-22T22:19:30.755Z,16.40
2023-04-22T22:21:58.765Z,18.00
2023-04-22T22:24:27.096Z,15.80
2023-04-22T22:26:55.242Z,17.20
2023-04-22T22:29:23.495Z,15.90
2023-04-22T22:31:51.641Z,16.80
2023-04-22T22:34:19.688Z,16.60
2023-04-22T22:36:47.761Z,18.10
2023-04-22T22:39:16.448Z,19.10
2023-04-22T22:41:44.459Z,17.70
2023-04-22T22:44:12.536Z,19.70
2023-04-22T22:46:40.724Z,16.80
2023-04-22T22:49:09.354Z,17.40
2023-04-22T22:51:37.601Z,18.50
2023-04-22T22:54:05.902Z,19.30
2023-04-22T22:56:34.059Z,20.90
2023-04-22T22:59:02.226Z,19.70
2023-04-22T23:01:30.294Z,21.70
2023-04-22T23:03:58.511Z,20.80
2023-04-22T23:06:27.262Z,19.60
2023-04-22T23:08:55.531Z,19.40
2023-04-22T23:11:23.573Z,18.90
2023-04-22T23:13:51.546Z,20.50
2023-04-22T23:16:19.619Z,20.70
2023-04-22T23:18:48.127Z,21.10
2023-04-22T23:21:16.345Z,18.80
2023-04-22T23:23:44.350Z,19.10
2023-04-22T23:26:12.605Z,20.20
2023-04-22T23:28:40.848Z,19.10
2023-04-22T23:31:09.043Z,18.70
2023-04-22T23:33:37.124Z,18.70
2023-04-22T23:36:06.130Z,19.90
2023-04-22T23:38:34.369Z,19.20
2023-04-22T23:41:02.323Z,17.50
2023-04-22T23:43:30.421Z,18.40
2023-04-22T23:45:58.646Z,18.00
2023-04-22T23:48:26.633Z,19.50
2023-04-22T23:50:54.932Z,17.30
2023-04-22T23:53:23.016Z,18.10
2023-04-22T23:55:51.568Z,17.80
2023-04-22T23:58:19.770Z,17.90
